Time;durP1;ratioP1;P1;durP2;ratioP2;P2;SDS_P1;SDS_P2;PMS_P1;PMS_P2;Temp;Humidity;BMP_temperature;BMP_pressure;BME280_temperature;BME280_humidity;BME280_pressure;Samples;Min_cycle;Max_cycle;Signal;HPM_P1;HPM_P2
2023/08/04 00:00:46;;;;;;;5.03;2.70;;;;;;;17.39;100.00;98084.19;4484714;31;20114;-68
2023/08/04 00:03:14;;;;;;;4.40;3.10;;;;;;;17.31;100.00;98090.47;4484752;32;20433;-68
2023/08/04 00:05:42;;;;;;;4.15;2.78;;;;;;;17.34;100.00;98089.28;4485050;32;20517;-68
2023/08/04 00:08:09;;;;;;;6.65;2.90;;;;;;;17.40;100.00;98146.72;4484779;31;20122;-68
2023/08/04 00:10:37;;;;;;;4.37;2.20;;;;;;;17.18;100.00;98228.88;4484866;31;20100;-67
2023/08/04 00:13:05;;;;;;;6.85;2.58;;;;;;;16.92;100.00;98255.94;4483195;32;20442;-67
2023/08/04 00:15:32;;;;;;;8.80;2.40;;;;;;;16.77;100.00;98241.94;4484917;31;20104;-68
2023/08/04 00:18:03;;;;;;;4.82;2.12;;;;;;;16.77;100.00;98226.06;4484490;31;20080;-67
2023/08/04 00:20:31;;;;;;;6.00;2.28;;;;;;;16.73;100.00;98245.97;4484731;31;20065;-67
2023/08/04 00:22:58;;;;;;;14.98;2.45;;;;;;;16.65;100.00;98278.66;4484409;32;20100;-67
2023/08/04 00:25:26;;;;;;;5.62;2.58;;;;;;;16.59;100.00;98248.47;4484776;32;20113;-71
2023/08/04 00:27:53;;;;;;;4.40;2.37;;;;;;;16.37;100.00;98178.94;4484385;32;20119;-71
2023/08/04 00:30:21;;;;;;;6.10;2.28;;;;;;;16.41;100.00;98209.28;4484561;32;20092;-70
2023/08/04 00:32:50;;;;;;;7.40;2.17;;;;;;;16.50;100.00;98221.38;4484495;32;20093;-70
2023/08/04 00:35:17;;;;;;;4.65;1.87;;;;;;;16.19;100.00;98165.34;4484356;32;20115;-69
2023/08/04 00:37:45;;;;;;;4.85;2.20;;;;;;;16.08;100.00;98162.19;4484163;32;20114;-69
2023/08/04 00:40:13;;;;;;;4.35;2.28;;;;;;;16.12;100.00;98165.25;4484505;31;20123;-69
2023/08/04 00:42:40;;;;;;;10.60;2.65;;;;;;;16.13;100.00;98170.34;4484424;32;20093;-68
2023/08/04 00:45:08;;;;;;;23.75;4.72;;;;;;;16.07;100.00;98168.47;4484330;32;20093;-69
2023/08/04 00:47:38;;;;;;;5.25;2.87;;;;;;;16.04;100.00;98147.69;4484286;31;20088;-69
2023/08/04 00:50:07;;;;;;;8.75;2.92;;;;;;;16.00;100.00;98146.44;4484112;31;20080;-69
2023/08/04 00:52:36;;;;;;;7.82;2.45;;;;;;;15.99;100.00;98152.75;4484038;31;20105;-70
2023/08/04 00:55:05;;;;;;;8.05;3.12;;;;;;;16.05;100.00;98149.34;4484190;31;20096;-70
2023/08/04 00:57:33;;;;;;;10.30;3.15;;;;;;;16.14;100.00;98147.41;4482751;32;20085;-70
2023/08/04 01:00:02;;;;;;;6.10;3.10;;;;;;;16.26;100.00;98145.91;4482967;32;20115;-70
2023/08/04 01:02:32;;;;;;;5.12;2.85;;;;;;;16.36;100.00;98126.25;4483929;31;20081;-70
2023/08/04 01:05:02;;;;;;;21.37;3.35;;;;;;;16.30;100.00;98131.28;4484022;31;20088;-70
2023/08/04 01:07:42;;;;;;;12.95;3.05;;;;;;;16.46;100.00;98182.28;4482700;32;20149;-70
2023/08/04 01:10:34;;;;;;;31.98;3.90;;;;;;;16.56;100.00;98187.22;4484799;32;20084;-68
2023/08/04 01:13:05;;;;;;;8.35;3.50;;;;;;;16.48;100.00;98138.75;4485017;32;20096;-68
2023/08/04 01:15:33;;;;;;;9.73;3.60;;;;;;;16.48;100.00;98122.09;4476756;31;20104;-68
2023/08/04 01:18:01;;;;;;;10.57;4.07;;;;;;;16.61;100.00;98134.59;4501754;31;20151;-67
2023/08/04 01:20:29;;;;;;;9.00;3.67;;;;;;;16.75;100.00;98162.78;4501902;31;20097;-68
2023/08/04 01:22:57;;;;;;;7.50;3.28;;;;;;;16.83;100.00;98181.16;4501581;31;20092;-68
2023/08/04 01:25:35;;;;;;;29.63;4.62;;;;;;;16.90;100.00;98189.19;4487929;31;20097;-68
2023/08/04 01:28:10;;;;;;;11.85;3.90;;;;;;;16.88;100.00;98164.75;4487405;31;20091;-68
2023/08/04 01:30:39;;;;;;;9.05;3.80;;;;;;;16.92;100.00;98183.69;4501743;31;20140;-68
2023/08/04 01:33:06;;;;;;;12.63;3.97;;;;;;;16.94;100.00;98202.84;4501715;31;20088;-67
2023/08/04 01:35:40;;;;;;;5.78;3.65;;;;;;;16.99;100.00;98192.50;4501964;31;20155;-67
2023/08/04 01:38:09;;;;;;;10.45;3.62;;;;;;;17.02;100.00;98179.69;4487439;31;20157;-67
2023/08/04 01:40:39;;;;;;;8.52;4.25;;;;;;;17.15;100.00;98172.84;4501628;31;20106;-67
2023/08/04 01:43:07;;;;;;;9.13;3.85;;;;;;;17.19;100.00;98166.16;4501736;31;20132;-68
2023/08/04 01:45:36;;;;;;;13.38;3.80;;;;;;;17.25;100.00;98154.00;4501672;31;20084;-67
2023/08/04 01:48:04;;;;;;;8.88;4.10;;;;;;;17.25;100.00;98159.28;4501369;31;20096;-68
2023/08/04 01:50:32;;;;;;;9.52;4.20;;;;;;;17.30;100.00;98156.84;4501581;31;20104;-69
2023/08/04 01:53:00;;;;;;;8.25;4.12;;;;;;;17.32;100.00;98165.41;4488702;31;20113;-69
2023/08/04 01:55:28;;;;;;;7.90;4.50;;;;;;;17.44;100.00;98174.47;4485896;31;20096;-69
2023/08/04 01:57:57;;;;;;;6.53;4.43;;;;;;;17.56;100.00;98187.94;4485925;31;20573;-70
2023/08/04 02:00:27;;;;;;;6.70;4.20;;;;;;;17.70;100.00;98191.50;4485854;32;20168;-69
2023/08/04 02:02:57;;;;;;;7.37;4.28;;;;;;;17.83;100.00;98196.00;4485648;32;20423;-69
2023/08/04 02:05:27;;;;;;;7.80;4.12;;;;;;;17.83;100.00;98165.03;4485831;32;20173;-69
2023/08/04 02:07:55;;;;;;;7.45;3.55;;;;;;;17.80;100.00;98146.06;4485655;32;20108;-69
2023/08/04 02:10:31;;;;;;;8.73;3.58;;;;;;;17.81;100.00;98132.63;4485853;32;20096;-70
2023/08/04 02:12:58;;;;;;;6.20;3.92;;;;;;;17.64;100.00;98149.87;4485663;31;20385;-70
2023/08/04 02:15:27;;;;;;;5.57;3.35;;;;;;;17.60;100.00;98141.50;4494740;31;20441;-69
2023/08/04 02:17:55;;;;;;;4.90;3.40;;;;;;;17.60;100.00;98130.12;4501173;31;20110;-69
2023/08/04 02:20:24;;;;;;;5.35;3.47;;;;;;;17.52;100.00;98133.75;4500602;31;20105;-70
2023/08/04 02:22:54;;;;;;;5.70;3.28;;;;;;;17.58;100.00;98137.41;4501464;31;20506;-69
2023/08/04 02:25:23;;;;;;;7.55;3.45;;;;;;;17.38;100.00;98148.75;4501365;31;20141;-70
2023/08/04 02:27:50;;;;;;;6.22;3.65;;;;;;;17.28;100.00;98150.94;4501285;31;20127;-70
2023/08/04 02:30:18;;;;;;;4.12;3.08;;;;;;;17.36;100.00;98166.66;4501181;31;20510;-70
2023/08/04 02:32:46;;;;;;;3.87;2.95;;;;;;;17.20;100.00;98149.28;4501165;31;20088;-70
2023/08/04 02:35:16;;;;;;;5.07;2.70;;;;;;;17.20;100.00;98144.78;4501378;31;20160;-70
2023/08/04 02:37:46;;;;;;;8.32;3.17;;;;;;;17.13;100.00;98129.91;4501557;31;20407;-70
2023/08/04 02:40:13;;;;;;;4.30;2.97;;;;;;;16.99;100.00;98113.13;4501097;31;20148;-70
2023/08/04 02:42:42;;;;;;;4.40;3.12;;;;;;;16.96;100.00;98098.44;4501124;31;20505;-70
2023/08/04 02:45:11;;;;;;;5.05;2.78;;;;;;;16.97;100.00;98115.12;4501298;31;20088;-70
2023/08/04 02:47:39;;;;;;;5.62;3.12;;;;;;;16.96;100.00;98143.44;4501058;31;20096;-70
2023/08/04 02:50:07;;;;;;;4.00;2.80;;;;;;;17.08;100.00;98164.87;4500997;31;20159;-70
2023/08/04 02:52:36;;;;;;;4.53;2.50;;;;;;;17.01;100.00;98206.34;4490892;31;20155;-70
2023/08/04 02:55:05;;;;;;;23.23;3.17;;;;;;;16.62;100.00;98236.72;4485399;31;20096;-68
2023/08/04 02:57:34;;;;;;;17.85;2.75;;;;;;;16.42;100.00;98223.31;4485522;31;20171;-67
2023/08/04 03:00:02;;;;;;;9.43;1.73;;;;;;;16.36;100.00;98221.41;4485394;31;20092;-67
2023/08/04 03:02:32;;;;;;;8.20;1.40;;;;;;;16.37;100.00;98204.56;4485482;31;20133;-67
2023/08/04 03:05:00;;;;;;;3.30;1.20;;;;;;;16.37;100.00;98205.38;4485163;31;20104;-68
2023/08/04 03:07:28;;;;;;;4.60;1.25;;;;;;;16.34;100.00;98184.59;4485099;32;20104;-68
2023/08/04 03:09:55;;;;;;;2.80;1.30;;;;;;;16.31;100.00;98171.75;4485152;32;20092;-68
2023/08/04 03:12:23;;;;;;;0.88;0.75;;;;;;;16.39;100.00;98171.63;4485315;32;20488;-69
2023/08/04 03:14:51;;;;;;;1.25;0.90;;;;;;;16.40;100.00;98162.69;4485158;31;20161;-70
2023/08/04 03:17:18;;;;;;;1.73;1.15;;;;;;;16.56;100.00;98160.78;4485065;32;20096;-70
2023/08/04 03:19:46;;;;;;;2.33;1.15;;;;;;;16.60;100.00;98165.50;4485052;32;20411;-70
2023/08/04 03:22:13;;;;;;;2.67;1.45;;;;;;;16.62;100.00;98167.97;4485224;31;20120;-70
2023/08/04 03:24:41;;;;;;;3.95;1.35;;;;;;;16.74;100.00;98168.25;4485109;32;20524;-70
2023/08/04 03:27:10;;;;;;;2.80;1.40;;;;;;;16.72;100.00;98155.22;4485501;31;20101;-70
2023/08/04 03:29:37;;;;;;;3.05;1.40;;;;;;;16.67;100.00;98153.16;4500719;31;20114;-70
2023/08/04 03:32:05;;;;;;;2.35;1.48;;;;;;;16.72;100.00;98157.88;4500630;31;20088;-70
2023/08/04 03:34:33;;;;;;;2.92;1.35;;;;;;;16.59;100.00;98165.69;4500697;31;20091;-70
2023/08/04 03:37:01;;;;;;;1.87;1.20;;;;;;;16.60;100.00;98172.63;4501080;31;20092;-70
2023/08/04 03:39:28;;;;;;;2.60;1.58;;;;;;;16.67;100.00;98184.91;4500697;31;20150;-70
2023/08/04 03:41:56;;;;;;;7.50;3.12;;;;;;;16.66;100.00;98193.84;4500734;31;20092;-70
2023/08/04 03:44:24;;;;;;;6.95;2.78;;;;;;;16.67;100.00;98205.25;4500755;31;20521;-70
2023/08/04 03:46:52;;;;;;;4.60;2.87;;;;;;;16.58;100.00;98216.94;4500787;31;20114;-70
2023/08/04 03:49:20;;;;;;;7.05;3.62;;;;;;;16.49;100.00;98222.38;4500542;31;20076;-70
2023/08/04 03:51:49;;;;;;;5.40;4.10;;;;;;;16.38;100.00;98222.03;4495646;31;20446;-70
2023/08/04 03:54:18;;;;;;;9.73;4.05;;;;;;;16.33;100.00;98259.59;4484708;31;20130;-70
2023/08/04 03:56:46;;;;;;;5.68;3.33;;;;;;;16.29;100.00;98261.81;4484847;32;20101;-70
2023/08/04 03:59:15;;;;;;;6.10;3.78;;;;;;;16.18;100.00;98232.41;4484749;32;20103;-70
2023/08/04 04:01:43;;;;;;;5.35;3.78;;;;;;;16.24;100.00;98236.94;4485099;31;20531;-70
2023/08/04 04:04:11;;;;;;;7.37;4.70;;;;;;;16.17;100.00;98251.91;4483453;32;20466;-70
2023/08/04 04:06:40;;;;;;;6.55;5.00;;;;;;;16.20;100.00;98270.87;4484725;31;20105;-70
2023/08/04 04:09:08;;;;;;;11.25;6.30;;;;;;;16.19;100.00;98284.28;4485049;31;20104;-70
2023/08/04 04:11:36;;;;;;;8.40;4.53;;;;;;;16.19;100.00;98294.84;4484521;32;20097;-70
2023/08/04 04:14:05;;;;;;;7.90;4.78;;;;;;;16.17;100.00;98300.31;4484562;31;20462;-70
2023/08/04 04:16:33;;;;;;;9.35;4.78;;;;;;;16.11;100.00;98295.75;4484717;31;20114;-69
2023/08/04 04:19:01;;;;;;;8.30;4.60;;;;;;;16.11;100.00;98259.56;4500187;31;20201;-68
2023/08/04 04:21:29;;;;;;;5.87;3.72;;;;;;;16.10;100.00;98242.06;4500315;31;20156;-69
2023/08/04 04:23:56;;;;;;;6.93;3.40;;;;;;;16.05;100.00;98222.50;4500036;31;20186;-70
2023/08/04 04:26:24;;;;;;;4.18;2.75;;;;;;;16.21;100.00;98213.53;4485922;31;20159;-70
2023/08/04 04:28:52;;;;;;;5.80;2.97;;;;;;;16.29;100.00;98205.47;4500327;31;20114;-70
2023/08/04 04:31:19;;;;;;;5.22;3.10;;;;;;;16.24;100.00;98199.94;4500175;31;20088;-70
2023/08/04 04:33:49;;;;;;;3.70;2.97;;;;;;;16.40;100.00;98189.13;4500115;31;20099;-70
2023/08/04 04:36:17;;;;;;;7.00;2.95;;;;;;;16.36;100.00;98190.50;4500127;31;20076;-70
2023/08/04 04:38:44;;;;;;;6.50;2.67;;;;;;;16.35;100.00;98193.34;4500298;31;20096;-70
2023/08/04 04:41:12;;;;;;;4.30;2.75;;;;;;;16.46;100.00;98201.59;4500453;31;20104;-70
2023/08/04 04:43:40;;;;;;;3.33;2.50;;;;;;;16.57;100.00;98188.88;4500687;31;20152;-70
2023/08/04 04:46:08;;;;;;;3.72;2.45;;;;;;;16.69;100.00;98187.34;4502024;31;20100;-70
2023/08/04 04:48:36;;;;;;;6.78;2.90;;;;;;;16.74;100.00;98177.00;4502046;31;20107;-70
2023/08/04 04:51:04;;;;;;;4.20;2.70;;;;;;;16.85;100.00;98165.91;4501969;31;20473;-70
2023/08/04 04:53:32;;;;;;;4.82;2.70;;;;;;;16.95;100.00;98165.59;4486372;31;20621;-70
2023/08/04 04:56:00;;;;;;;3.25;2.37;;;;;;;16.92;100.00;98165.97;4486150;31;20118;-70
2023/08/04 04:58:30;;;;;;;4.93;2.47;;;;;;;16.99;100.00;98168.69;4486363;31;20425;-70
2023/08/04 05:01:04;;;;;;;4.53;2.85;;;;;;;17.12;100.00;98163.50;4486125;31;20123;-69
2023/08/04 05:03:32;;;;;;;4.68;2.22;;;;;;;17.10;100.00;98167.34;4486307;31;20089;-70
2023/08/04 05:05:59;;;;;;;3.60;2.50;;;;;;;17.06;100.00;98171.37;4486031;31;20096;-70
2023/08/04 05:08:26;;;;;;;3.78;2.65;;;;;;;17.22;100.00;98164.97;4486148;31;20137;-69
2023/08/04 05:10:54;;;;;;;3.78;2.67;;;;;;;17.15;100.00;98162.25;4485917;32;20576;-69
2023/08/04 05:13:21;;;;;;;2.72;2.00;;;;;;;17.30;100.00;98156.84;4486127;31;20430;-69
2023/08/04 05:15:49;;;;;;;3.03;2.22;;;;;;;17.23;100.00;98169.22;4485994;31;20123;-69
2023/08/04 05:18:18;;;;;;;6.20;2.58;;;;;;;17.26;100.00;98158.25;4486171;32;20106;-68
2023/08/04 05:20:47;;;;;;;4.57;2.50;;;;;;;17.39;100.00;98168.91;4486036;31;20157;-68
2023/08/04 05:23:14;;;;;;;5.05;2.70;;;;;;;17.49;100.00;98161.44;4486074;31;20478;-68
2023/08/04 05:25:43;;;;;;;7.55;2.40;;;;;;;17.59;100.00;98154.97;4485896;31;20116;-68
2023/08/04 05:28:30;;;;;;;4.65;2.55;;;;;;;17.56;100.00;98157.00;4486099;31;20088;-68
2023/08/04 05:31:02;;;;;;;3.60;2.53;;;;;;;17.68;100.00;98159.06;4486031;32;20510;-68
2023/08/04 05:33:32;;;;;;;3.28;2.35;;;;;;;17.85;100.00;98164.81;4486047;31;20123;-68
2023/08/04 05:35:59;;;;;;;3.37;2.30;;;;;;;17.89;100.00;98151.00;4493289;31;20122;-68
2023/08/04 05:38:28;;;;;;;4.40;2.28;;;;;;;17.93;100.00;98151.44;4487570;31;20159;-67
2023/08/04 05:41:00;;;;;;;5.93;2.28;;;;;;;18.10;100.00;98157.19;4501808;31;20127;-67
2023/08/04 05:43:28;;;;;;;4.35;2.92;;;;;;;18.34;100.00;98153.16;4501767;31;20088;-68
2023/08/04 05:46:00;;;;;;;5.80;2.45;;;;;;;18.54;100.00;98147.84;4501468;31;20084;-68
2023/08/04 05:48:32;;;;;;;3.20;2.10;;;;;;;18.53;100.00;98153.38;4501423;31;20144;-68
2023/08/04 05:51:00;;;;;;;5.75;2.10;;;;;;;18.52;100.00;98152.56;4501601;31;20091;-68
2023/08/04 05:53:28;;;;;;;3.12;1.80;;;;;;;18.78;100.00;98159.69;4468996;32;20192;-68
2023/08/04 05:55:57;;;;;;;4.15;2.28;;;;;;;19.13;100.00;98161.31;4470277;32;20085;-68
2023/08/04 05:58:24;;;;;;;3.40;2.17;;;;;;;19.35;100.00;98163.72;4481670;32;20089;-68
2023/08/04 06:00:51;;;;;;;5.62;2.15;;;;;;;19.53;100.00;98149.75;4484924;31;20092;-69
2023/08/04 06:03:18;;;;;;;5.43;2.10;;;;;;;19.47;100.00;98148.75;4484514;31;20104;-68
2023/08/04 06:05:47;;;;;;;3.97;1.92;;;;;;;19.57;100.00;98145.66;4485300;31;20092;-69
2023/08/04 06:08:15;;;;;;;3.00;2.08;;;;;;;19.89;100.00;98149.22;4485380;31;20093;-69
2023/08/04 06:10:43;;;;;;;2.83;1.90;;;;;;;19.77;100.00;98153.56;4485595;31;20148;-69
2023/08/04 06:13:10;;;;;;;3.20;2.15;;;;;;;19.82;100.00;98159.09;4484754;31;20100;-69
2023/08/04 06:15:37;;;;;;;2.60;1.80;;;;;;;19.78;100.00;98157.88;4475405;31;20092;-69
2023/08/04 06:18:04;;;;;;;3.62;2.08;;;;;;;19.94;100.00;98172.50;4485362;32;20442;-69
2023/08/04 06:20:32;;;;;;;6.40;2.53;;;;;;;19.97;100.00;98172.09;4484805;31;20175;-69
2023/08/04 06:22:59;;;;;;;3.30;1.90;;;;;;;20.16;100.00;98179.13;4485234;31;20097;-69
2023/08/04 06:25:27;;;;;;;2.78;1.55;;;;;;;20.30;100.00;98173.75;4485117;32;20092;-69
2023/08/04 06:27:56;;;;;;;2.37;1.83;;;;;;;20.26;100.00;98172.53;4485213;31;20390;-69
2023/08/04 06:30:24;;;;;;;2.50;1.85;;;;;;;20.47;100.00;98182.84;4483492;31;20126;-68
2023/08/04 06:32:51;;;;;;;3.05;2.00;;;;;;;20.16;100.00;98183.66;4484605;31;20409;-68
2023/08/04 06:35:19;;;;;;;2.55;2.08;;;;;;;20.25;100.00;98178.91;4484465;31;20105;-69
2023/08/04 06:37:47;;;;;;;2.97;1.80;;;;;;;20.26;100.00;98184.00;4483079;31;20093;-69
2023/08/04 06:40:17;;;;;;;2.58;1.85;;;;;;;20.55;100.00;98189.75;4483010;31;20119;-69
2023/08/04 06:42:45;;;;;;;4.70;1.90;;;;;;;20.63;100.00;98200.13;4483060;31;20096;-69
2023/08/04 06:45:12;;;;;;;3.00;1.90;;;;;;;20.84;100.00;98206.16;4483155;31;20100;-69
2023/08/04 06:47:42;;;;;;;2.08;1.70;;;;;;;21.37;100.00;98212.84;4483180;31;20480;-69
2023/08/04 06:50:10;;;;;;;2.20;1.60;;;;;;;21.54;100.00;98215.75;4482815;31;20100;-69
2023/08/04 06:52:38;;;;;;;3.40;1.62;;;;;;;21.55;100.00;98220.06;4483055;32;20486;-69
2023/08/04 06:55:06;;;;;;;4.25;1.65;;;;;;;21.57;100.00;98223.31;4482602;32;20088;-69
2023/08/04 06:57:33;;;;;;;1.98;1.77;;;;;;;21.64;100.00;98221.41;4471079;32;20148;-69
2023/08/04 07:00:00;;;;;;;3.12;1.50;;;;;;;21.47;100.00;98212.31;4483695;31;20100;-69
2023/08/04 07:02:30;;;;;;;2.85;1.95;;;;;;;21.50;100.00;98227.88;4483686;31;20940;-69
2023/08/04 07:04:57;;;;;;;3.62;1.62;;;;;;;21.20;100.00;98234.72;4483849;31;20084;-70
2023/08/04 07:07:27;;;;;;;4.40;1.80;;;;;;;21.37;100.00;98234.97;4483973;31;20449;-69
2023/08/04 07:09:54;;;;;;;2.37;1.77;;;;;;;21.34;100.00;98240.72;4484562;32;20123;-70
2023/08/04 07:12:23;;;;;;;5.55;1.83;;;;;;;21.12;100.00;98237.66;4484675;31;20096;-70
2023/08/04 07:14:50;;;;;;;3.85;1.83;;;;;;;20.94;100.00;98238.44;4483704;31;20100;-70
2023/08/04 07:17:18;;;;;;;8.55;1.90;;;;;;;20.66;100.00;98236.97;4484667;31;20558;-70
2023/08/04 07:19:46;;;;;;;5.43;1.90;;;;;;;20.71;100.00;98242.50;4485061;31;20089;-70
2023/08/04 07:22:14;;;;;;;4.57;1.92;;;;;;;20.73;100.00;98243.06;4484513;31;20477;-70
2023/08/04 07:24:42;;;;;;;5.50;2.00;;;;;;;20.90;100.00;98235.38;4484242;32;20564;-70
2023/08/04 07:27:10;;;;;;;3.70;1.85;;;;;;;20.88;100.00;98233.97;4484695;31;20092;-70
2023/08/04 07:29:38;;;;;;;1.92;1.52;;;;;;;21.05;100.00;98250.22;4484872;31;20528;-70
2023/08/04 07:32:07;;;;;;;2.58;1.90;;;;;;;21.15;100.00;98260.38;4484927;31;20101;-70
2023/08/04 07:34:34;;;;;;;2.72;1.85;;;;;;;21.25;100.00;98261.50;4484787;31;20088;-70
2023/08/04 07:37:02;;;;;;;5.00;2.25;;;;;;;21.35;100.00;98266.34;4484635;31;20111;-71
2023/08/04 07:39:29;;;;;;;5.97;2.37;;;;;;;21.32;100.00;98264.13;4484218;31;20746;-71
2023/08/04 07:41:58;;;;;;;4.43;2.17;;;;;;;21.43;100.00;98271.37;4484948;31;20119;-71
2023/08/04 07:44:25;;;;;;;3.10;2.10;;;;;;;21.37;100.00;98272.25;4484666;31;20092;-71
2023/08/04 07:46:52;;;;;;;3.33;2.42;;;;;;;21.43;100.00;98254.59;4484657;32;20111;-71
2023/08/04 07:49:21;;;;;;;4.57;1.95;;;;;;;21.56;100.00;98265.16;4484119;31;20115;-71
2023/08/04 07:51:50;;;;;;;5.25;2.17;;;;;;;21.53;100.00;98259.44;4484283;32;20104;-71
2023/08/04 07:54:18;;;;;;;2.12;1.80;;;;;;;21.79;100.00;98259.16;4484613;31;20096;-71
2023/08/04 07:56:45;;;;;;;3.55;1.80;;;;;;;22.09;100.00;98250.41;4484793;31;20093;-71
2023/08/04 07:59:14;;;;;;;10.93;2.08;;;;;;;21.94;100.00;98253.44;4484091;31;20100;-71
2023/08/04 08:01:41;;;;;;;3.55;1.77;;;;;;;22.23;100.00;98248.37;4484588;32;20157;-71
2023/08/04 08:04:12;;;;;;;2.58;1.87;;;;;;;22.31;100.00;98256.09;4484436;31;20138;-71
2023/08/04 08:06:42;;;;;;;5.47;1.80;;;;;;;22.57;100.00;98245.28;4484596;31;20525;-71
2023/08/04 08:09:12;;;;;;;3.72;1.75;;;;;;;22.88;100.00;98244.19;4484381;31;20107;-71
2023/08/04 08:11:39;;;;;;;3.40;1.70;;;;;;;22.79;100.00;98250.91;4472575;32;20477;-71
2023/08/04 08:14:06;;;;;;;3.60;1.73;;;;;;;22.89;100.00;98251.12;4482697;31;20096;-71
2023/08/04 08:16:34;;;;;;;4.15;2.03;;;;;;;22.80;100.00;98257.84;4484561;32;20092;-71
2023/08/04 08:19:03;;;;;;;2.40;2.00;;;;;;;22.63;100.00;98249.69;4483469;31;20096;-70
2023/08/04 08:21:31;;;;;;;3.08;1.65;;;;;;;22.93;100.00;98235.47;4484053;31;20104;-71
2023/08/04 08:23:58;;;;;;;2.70;2.30;;;;;;;23.20;100.00;98230.53;4484028;31;20103;-70
2023/08/04 08:26:26;;;;;;;3.70;2.17;;;;;;;23.29;100.00;98225.66;4484540;31;20089;-70
2023/08/04 08:28:53;;;;;;;2.28;1.62;;;;;;;23.68;100.00;98223.28;4484026;31;20115;-71
2023/08/04 08:31:21;;;;;;;2.90;1.65;;;;;;;23.91;100.00;98220.56;4484132;32;20446;-70
2023/08/04 08:33:48;;;;;;;2.03;1.60;;;;;;;23.80;100.00;98223.25;4481393;32;20089;-71
2023/08/04 08:36:16;;;;;;;5.03;1.45;;;;;;;23.63;100.00;98228.53;4483467;32;20672;-71
2023/08/04 08:38:43;;;;;;;4.10;1.62;;;;;;;23.75;100.00;98231.97;4484299;32;20451;-71
2023/08/04 08:41:13;;;;;;;2.25;1.40;;;;;;;23.55;100.00;98232.37;4483737;31;20503;-71
2023/08/04 08:43:44;;;;;;;2.20;1.60;;;;;;;23.80;100.00;98237.47;4483658;32;20104;-71
2023/08/04 08:46:12;;;;;;;4.32;1.60;;;;;;;24.08;100.00;98251.94;4483914;31;20119;-71
2023/08/04 08:48:46;;;;;;;4.40;1.60;;;;;;;24.15;100.00;98267.84;4482470;32;20100;-71
2023/08/04 08:51:20;;;;;;;3.05;1.60;;;;;;;24.65;100.00;98271.75;4483839;31;20152;-71
2023/08/04 08:53:48;;;;;;;8.20;1.80;;;;;;;25.08;100.00;98257.72;4482705;32;20120;-71
2023/08/04 08:56:16;;;;;;;3.17;2.05;;;;;;;25.11;100.00;98261.81;4483909;32;20092;-71
2023/08/04 08:58:44;;;;;;;8.90;1.75;;;;;;;24.42;100.00;98268.94;4483710;31;20158;-71
2023/08/04 09:01:12;;;;;;;3.03;2.00;;;;;;;24.12;100.00;98253.09;4483686;32;20096;-70
2023/08/04 09:03:40;;;;;;;5.07;2.25;;;;;;;23.52;100.00;98252.38;4482600;32;20168;-71
2023/08/04 09:06:23;;;;;;;;;;;;;;;23.38;100.00;98242.97;4483990;32;20146;-70
2023/08/04 09:08:53;;;;;;;4.22;2.20;;;;;;;23.48;100.00;98253.91;4483751;31;19983;-70
2023/08/04 09:11:20;;;;;;;3.80;1.95;;;;;;;23.36;100.00;98258.41;4483763;31;20139;-70
2023/08/04 09:13:49;;;;;;;4.95;2.00;;;;;;;23.40;100.00;98251.56;4470871;32;20191;-70
2023/08/04 09:16:31;;;;;;;5.62;2.30;;;;;;;23.25;100.00;98237.84;4486408;31;20089;-70
2023/08/04 09:19:05;;;;;;;4.90;2.17;;;;;;;23.47;100.00;98246.13;4482817;32;20493;-69
2023/08/04 09:21:33;;;;;;;3.97;2.15;;;;;;;23.62;100.00;98251.78;4483492;31;20092;-69
2023/08/04 09:24:02;;;;;;;4.20;2.30;;;;;;;23.55;100.00;98251.88;4483629;31;20100;-69
2023/08/04 09:26:44;;;;;;;3.62;2.60;;;;;;;23.87;100.00;98240.81;4482857;31;20077;-69
2023/08/04 09:29:13;;;;;;;3.70;2.22;;;;;;;24.05;100.00;98239.03;4484027;31;20126;-69
2023/08/04 09:31:45;;;;;;;3.60;2.20;;;;;;;24.03;100.00;98244.62;4485983;31;20111;-69
2023/08/04 09:34:13;;;;;;;4.35;2.03;;;;;;;23.87;100.00;98237.34;4485976;31;20163;-69
2023/08/04 09:36:46;;;;;;;4.45;1.90;;;;;;;24.19;100.00;98223.50;4485988;31;20148;-69
2023/08/04 09:39:15;;;;;;;2.95;2.08;;;;;;;24.45;100.00;98222.09;4485901;31;20630;-69
2023/08/04 09:41:44;;;;;;;4.90;2.00;;;;;;;24.45;100.00;98222.09;4485965;31;20458;-69
2023/08/04 09:44:14;;;;;;;2.45;2.03;;;;;;;23.97;100.00;98210.78;4485665;31;20108;-69
2023/08/04 09:46:49;;;;;;;2.97;2.10;;;;;;;24.04;100.00;98202.63;4485892;32;20553;-69
2023/08/04 09:49:19;;;;;;;5.12;2.10;;;;;;;24.10;100.00;98217.72;4485522;31;20092;-69
2023/08/04 09:51:50;;;;;;;2.42;2.03;;;;;;;24.21;100.00;98222.22;4486053;31;20134;-69
2023/08/04 09:54:20;;;;;;;2.45;1.80;;;;;;;24.43;100.00;98226.88;4485826;31;20068;-69
2023/08/04 09:56:49;;;;;;;4.30;2.60;;;;;;;24.62;100.00;98235.56;4485873;31;20595;-69
2023/08/04 09:59:18;;;;;;;2.92;1.90;;;;;;;24.84;100.00;98222.25;4485811;31;20097;-69
2023/08/04 10:01:46;;;;;;;5.32;1.90;;;;;;;24.78;100.00;98217.87;4486123;31;20091;-69
2023/08/04 10:04:15;;;;;;;4.03;1.98;;;;;;;25.00;100.00;98217.13;4484617;32;20126;-69
2023/08/04 10:06:43;;;;;;;5.50;2.17;;;;;;;25.08;100.00;98216.72;4485610;31;20122;-69
2023/08/04 10:09:12;;;;;;;7.78;2.58;;;;;;;25.03;100.00;98222.81;4484600;32;20470;-69
2023/08/04 10:11:40;;;;;;;4.45;2.50;;;;;;;24.85;100.00;98217.72;4485780;31;20157;-69
2023/08/04 10:14:08;;;;;;;3.20;1.95;;;;;;;24.62;100.00;98224.84;4485705;32;20101;-69
2023/08/04 10:16:37;;;;;;;3.83;1.98;;;;;;;25.19;100.00;98221.16;4485683;31;20119;-69
2023/08/04 10:19:06;;;;;;;2.15;1.75;;;;;;;25.52;100.00;98216.03;4484205;32;20119;-69
2023/08/04 10:21:37;;;;;;;4.47;2.22;;;;;;;25.82;100.00;98223.66;4485694;32;20231;-69
2023/08/04 10:24:10;;;;;;;2.92;2.30;;;;;;;25.96;100.00;98229.44;4485714;32;20080;-69
2023/08/04 10:26:51;;;;;;;5.50;2.03;;;;;;;25.80;100.00;98218.53;4485388;32;20084;-69
2023/08/04 10:29:30;;;;;;;3.05;2.28;;;;;;;26.19;100.00;98226.53;4485527;32;20115;-69
2023/08/04 10:31:58;;;;;;;2.75;2.15;;;;;;;25.89;100.00;98221.59;4485659;32;20092;-69
2023/08/04 10:34:37;;;;;;;5.28;2.10;;;;;;;25.93;100.00;98225.37;4485320;31;20112;-69
2023/08/04 10:37:16;;;;;;;2.97;2.10;;;;;;;25.89;100.00;98224.28;4486012;32;20145;-69
2023/08/04 10:39:56;;;;;;;6.80;2.50;;;;;;;26.00;100.00;98222.56;4485444;32;20093;-69
2023/08/04 10:42:26;;;;;;;2.97;2.00;;;;;;;25.93;100.00;98225.37;4484574;32;20100;-69
2023/08/04 10:45:15;;;;;;;3.22;2.30;;;;;;;26.18;100.00;98229.47;4485240;32;20178;-69
2023/08/04 10:47:53;;;;;;;3.95;2.03;;;;;;;26.38;100.00;98229.66;4485385;32;20145;-69
2023/08/04 10:50:25;;;;;;;5.32;2.70;;;;;;;26.66;100.00;98233.19;4485354;32;20127;-69
2023/08/04 10:52:53;;;;;;;3.33;2.20;;;;;;;27.09;99.85;98223.31;4485301;32;20123;-69
2023/08/04 10:55:20;;;;;;;3.72;2.22;;;;;;;27.76;100.00;98226.38;4484061;32;20133;-69
2023/08/04 10:57:48;;;;;;;3.20;2.12;;;;;;;27.91;94.56;98225.63;4485423;32;20179;-69
2023/08/04 11:00:16;;;;;;;3.08;2.72;;;;;;;28.08;95.82;98217.37;4485072;32;20114;-69
2023/08/04 11:02:43;;;;;;;3.90;2.30;;;;;;;28.45;94.72;98224.47;4485349;32;20108;-69
2023/08/04 11:05:11;;;;;;;4.57;2.17;;;;;;;28.15;93.47;98234.09;4485239;31;20120;-69
2023/08/04 11:07:47;;;;;;;3.30;2.20;;;;;;;27.73;98.52;98235.00;4485519;31;20146;-69
2023/08/04 11:10:15;;;;;;;4.03;2.00;;;;;;;27.16;100.00;98233.84;4485586;31;20089;-69
2023/08/04 11:12:43;;;;;;;5.95;2.22;;;;;;;27.05;100.00;98232.94;4485311;31;20157;-69
2023/08/04 11:15:11;;;;;;;4.05;2.35;;;;;;;27.25;100.00;98228.78;4485143;31;20130;-69
2023/08/04 11:17:40;;;;;;;4.47;2.10;;;;;;;26.99;100.00;98223.22;4485182;32;20507;-69
2023/08/04 11:20:12;;;;;;;3.55;1.90;;;;;;;26.97;100.00;98220.00;4484630;32;20096;-69
2023/08/04 11:23:00;;;;;;;4.05;2.30;;;;;;;26.56;98.26;98225.00;4484320;32;20115;-69
2023/08/04 11:25:32;;;;;;;2.58;2.30;;;;;;;27.23;100.00;98226.34;4482741;32;20178;-69
2023/08/04 11:28:01;;;;;;;4.57;2.25;;;;;;;27.66;95.35;98220.97;4482530;32;20114;-69
2023/08/04 11:30:29;;;;;;;2.45;2.17;;;;;;;27.58;95.88;98221.47;4483971;31;20165;-70
2023/08/04 11:32:57;;;;;;;3.15;2.22;;;;;;;27.53;100.00;98216.06;4483991;32;20087;-69